Time;durP1;ratioP1;P1;durP2;ratioP2;P2;SDS_P1;SDS_P2;PMS_P1;PMS_P2;Temp;Humidity;BMP_temperature;BMP_pressure;BME280_temperature;BME280_humidity;BME280_pressure;Samples;Min_cycle;Max_cycle;Signal;HPM_P1;HPM_P2
2023/10/31 00:01:55;;;;;;;5.53;3.90;;;;;;;-148.88;100.00;-17125.47;5033621;28;20021;-74
2023/10/31 00:04:20;;;;;;;6.68;3.45;;;;;;;-148.88;100.00;-17125.47;5033533;28;20031;-74
2023/10/31 00:06:46;;;;;;;5.30;3.78;;;;;;;-148.88;100.00;-17125.47;5033907;28;20017;-74
2023/10/31 00:09:11;;;;;;;7.78;3.80;;;;;;;-148.88;100.00;-17125.47;5033313;28;20061;-74
2023/10/31 00:11:37;;;;;;;4.97;4.00;;;;;;;-148.88;100.00;-17125.47;5033538;28;20087;-74
2023/10/31 00:14:02;;;;;;;6.28;4.25;;;;;;;-148.88;100.00;-17125.47;5033298;28;20025;-74
2023/10/31 00:16:28;;;;;;;7.32;5.13;;;;;;;-148.88;100.00;-17125.47;5033120;28;20041;-74
2023/10/31 00:18:53;;;;;;;6.47;5.78;;;;;;;-148.88;100.00;-17125.47;5033219;28;20021;-74
2023/10/31 00:21:19;;;;;;;7.97;6.00;;;;;;;-148.88;100.00;-17125.47;5033189;28;20033;-74
2023/10/31 00:23:46;;;;;;;7.28;6.53;;;;;;;-148.88;100.00;-17125.47;5031867;28;20029;-74
2023/10/31 00:26:11;;;;;;;9.85;7.18;;;;;;;-148.88;100.00;-17125.47;5033058;28;20565;-74
2023/10/31 00:28:37;;;;;;;9.30;6.70;;;;;;;-148.88;100.00;-17125.47;5031743;28;20105;-74
2023/10/31 00:31:03;;;;;;;9.60;7.25;;;;;;;-148.88;100.00;-17125.47;5032991;28;20059;-74
2023/10/31 00:33:29;;;;;;;8.30;6.60;;;;;;;-148.88;100.00;-17125.47;5033030;28;20500;-74
2023/10/31 00:35:55;;;;;;;8.00;6.80;;;;;;;-148.88;100.00;-17125.47;5031647;28;20072;-75
2023/10/31 00:38:20;;;;;;;8.48;7.32;;;;;;;-148.88;100.00;-17125.47;5032921;28;20025;-74
2023/10/31 00:40:45;;;;;;;9.23;7.70;;;;;;;-148.88;100.00;-17125.47;5032771;28;20120;-74
2023/10/31 00:43:11;;;;;;;9.93;7.60;;;;;;;-148.88;100.00;-17125.47;5032826;28;20032;-74
2023/10/31 00:45:36;;;;;;;9.45;7.45;;;;;;;-148.88;100.00;-17125.47;5031472;28;20029;-74
2023/10/31 00:48:02;;;;;;;9.90;7.65;;;;;;;-148.88;100.00;-17125.47;5032777;28;20480;-74
2023/10/31 00:50:28;;;;;;;12.75;8.30;;;;;;;-148.88;100.00;-17125.47;5033026;28;20068;-75
2023/10/31 00:52:54;;;;;;;13.00;8.25;;;;;;;-148.88;100.00;-17125.47;5032681;28;20022;-74
2023/10/31 00:55:21;;;;;;;10.73;7.95;;;;;;;-148.88;100.00;-17125.47;5033013;28;20032;-74
2023/10/31 00:57:47;;;;;;;11.18;8.60;;;;;;;-148.88;100.00;-17125.47;5032574;28;20029;-74
2023/10/31 01:00:12;;;;;;;11.07;9.10;;;;;;;-148.88;100.00;-17125.47;5032633;28;20032;-74
2023/10/31 01:02:38;;;;;;;11.13;9.68;;;;;;;-148.88;100.00;-17125.47;5014787;28;20100;-74
2023/10/31 01:05:04;;;;;;;11.13;9.65;;;;;;;-148.88;100.00;-17125.47;5032479;28;20436;-74
2023/10/31 01:07:29;;;;;;;11.85;9.23;;;;;;;-148.88;100.00;-17125.47;5032422;28;20434;-74
2023/10/31 01:09:54;;;;;;;12.68;8.77;;;;;;;-148.88;100.00;-17125.47;5032375;28;20081;-74
2023/10/31 01:12:20;;;;;;;9.95;7.53;;;;;;;-148.88;100.00;-17125.47;5032406;28;20029;-74
2023/10/31 01:14:45;;;;;;;9.43;7.88;;;;;;;-148.88;100.00;-17125.47;5032485;28;20064;-74
2023/10/31 01:17:10;;;;;;;10.13;8.00;;;;;;;-148.88;100.00;-17125.47;5032386;28;20509;-74
2023/10/31 01:19:36;;;;;;;10.35;8.18;;;;;;;-148.88;100.00;-17125.47;5032364;28;20560;-74
2023/10/31 01:22:01;;;;;;;10.85;8.48;;;;;;;-148.88;100.00;-17125.47;5032314;28;20494;-74
2023/10/31 01:24:27;;;;;;;9.30;7.63;;;;;;;-148.88;100.00;-17125.47;5032468;28;20044;-74
2023/10/31 01:26:52;;;;;;;7.95;7.15;;;;;;;-148.88;100.00;-17125.47;5032730;28;20025;-74
2023/10/31 01:29:17;;;;;;;8.43;6.88;;;;;;;-148.88;100.00;-17125.47;5033959;28;20108;-74
2023/10/31 01:31:43;;;;;;;8.07;6.63;;;;;;;-148.88;100.00;-17125.47;5035532;28;20027;-75
2023/10/31 01:34:08;;;;;;;7.28;6.43;;;;;;;-148.88;100.00;-17125.47;5036598;28;20029;-74
2023/10/31 01:36:34;;;;;;;6.70;6.05;;;;;;;-148.88;100.00;-17125.47;5036527;28;20021;-74
2023/10/31 01:38:59;;;;;;;7.90;6.25;;;;;;;-148.88;100.00;-17125.47;5034873;28;20030;-74
2023/10/31 01:41:25;;;;;;;7.07;6.38;;;;;;;-148.88;100.00;-17125.47;5036209;28;20053;-75
2023/10/31 01:43:50;;;;;;;7.10;6.35;;;;;;;-148.88;100.00;-17125.47;5036202;28;20512;-75
2023/10/31 01:46:16;;;;;;;7.55;6.75;;;;;;;-148.88;100.00;-17125.47;5036596;28;20100;-75
2023/10/31 01:48:42;;;;;;;7.43;6.70;;;;;;;-148.88;100.00;-17125.47;5035940;28;20399;-74
2023/10/31 01:51:09;;;;;;;8.52;6.85;;;;;;;-148.88;100.00;-17125.47;5036071;28;20174;-74
2023/10/31 01:53:35;;;;;;;9.10;7.63;;;;;;;-148.88;100.00;-17125.47;5036447;28;20026;-74
2023/10/31 01:56:02;;;;;;;7.45;6.72;;;;;;;-148.88;100.00;-17125.47;5035908;28;20599;-74
2023/10/31 01:58:34;;;;;;;8.32;6.63;;;;;;;-148.88;100.00;-17125.47;5035850;28;20037;-74
2023/10/31 02:01:03;;;;;;;8.05;7.10;;;;;;;-148.88;100.00;-17125.47;5036026;28;20029;-74
2023/10/31 02:03:28;;;;;;;7.32;6.45;;;;;;;-148.88;100.00;-17125.47;5036081;28;20033;-74
2023/10/31 02:05:54;;;;;;;7.93;7.13;;;;;;;-148.88;100.00;-17125.47;5035658;28;20035;-74
2023/10/31 02:08:20;;;;;;;8.88;7.30;;;;;;;-148.88;100.00;-17125.47;5035615;28;20029;-75
2023/10/31 02:10:45;;;;;;;8.57;7.07;;;;;;;-148.88;100.00;-17125.47;5035679;28;20038;-75
2023/10/31 02:13:15;;;;;;;8.38;7.45;;;;;;;-148.88;100.00;-17125.47;5035618;28;20502;-74
2023/10/31 02:15:41;;;;;;;7.78;7.07;;;;;;;-148.88;100.00;-17125.47;5035611;28;20419;-74
2023/10/31 02:18:07;;;;;;;10.02;9.02;;;;;;;-148.88;100.00;-17125.47;5035520;28;20022;-74
2023/10/31 02:20:33;;;;;;;10.68;9.57;;;;;;;-148.88;100.00;-17125.47;5035513;28;20072;-74
2023/10/31 02:22:59;;;;;;;9.80;8.82;;;;;;;-148.88;100.00;-17125.47;5035362;28;20030;-74
2023/10/31 02:25:26;;;;;;;11.30;10.20;;;;;;;-148.88;100.00;-17125.47;5035359;28;20115;-74
2023/10/31 02:27:52;;;;;;;12.32;11.13;;;;;;;-148.88;100.00;-17125.47;5035688;28;20022;-74
2023/10/31 02:30:17;;;;;;;13.13;11.88;;;;;;;-148.88;100.00;-17125.47;5033757;28;20093;-74
2023/10/31 02:32:43;;;;;;;14.57;13.18;;;;;;;-148.88;100.00;-17125.47;5035577;28;20040;-75
2023/10/31 02:35:09;;;;;;;15.73;14.23;;;;;;;-148.88;100.00;-17125.47;5035679;28;20088;-74
2023/10/31 02:37:34;;;;;;;14.82;13.27;;;;;;;-148.88;100.00;-17125.47;5035443;28;20033;-75
2023/10/31 02:40:00;;;;;;;14.40;13.05;;;;;;;-148.88;100.00;-17125.47;5034951;28;20025;-74
2023/10/31 02:42:26;;;;;;;11.57;10.40;;;;;;;-148.88;100.00;-17125.47;5035171;28;20549;-74
2023/10/31 02:44:52;;;;;;;10.45;9.35;;;;;;;-148.88;100.00;-17125.47;5035035;28;20052;-75
2023/10/31 02:47:17;;;;;;;10.63;9.52;;;;;;;-148.88;100.00;-17125.47;5034834;28;20446;-74
2023/10/31 02:49:43;;;;;;;8.88;7.75;;;;;;;-148.88;100.00;-17125.47;5034863;28;20025;-74
2023/10/31 02:52:08;;;;;;;7.45;6.15;;;;;;;-148.88;100.00;-17125.47;5034897;28;20052;-74
2023/10/31 02:54:34;;;;;;;6.32;5.20;;;;;;;-148.88;100.00;-17125.47;5033505;28;20061;-74
2023/10/31 02:56:59;;;;;;;6.20;4.95;;;;;;;-148.88;100.00;-17125.47;5034751;28;20031;-74
2023/10/31 02:59:24;;;;;;;6.10;4.30;;;;;;;-148.88;100.00;-17125.47;5034943;28;20022;-74
2023/10/31 03:01:50;;;;;;;4.47;4.00;;;;;;;-148.88;100.00;-17125.47;5034922;28;20467;-74
2023/10/31 03:04:15;;;;;;;5.45;4.40;;;;;;;-148.88;100.00;-17125.47;5034586;28;20034;-74
2023/10/31 03:06:41;;;;;;;5.22;4.28;;;;;;;-148.88;100.00;-17125.47;5033179;28;20091;-74
2023/10/31 03:09:07;;;;;;;5.90;3.95;;;;;;;-148.88;100.00;-17125.47;5034417;28;20021;-74
2023/10/31 03:11:35;;;;;;;5.90;3.80;;;;;;;-148.88;100.00;-17125.47;5033119;28;20480;-74
2023/10/31 03:14:00;;;;;;;4.75;3.45;;;;;;;-148.88;100.00;-17125.47;5034630;28;20384;-74
2023/10/31 03:16:26;;;;;;;4.80;3.38;;;;;;;-148.88;100.00;-17125.47;5034583;28;20028;-74
2023/10/31 03:18:51;;;;;;;3.47;2.95;;;;;;;-148.88;100.00;-17125.47;5032869;28;20040;-74
2023/10/31 03:21:17;;;;;;;3.67;2.38;;;;;;;-148.88;100.00;-17125.47;5034581;28;20037;-74
2023/10/31 03:23:50;;;;;;;3.58;2.50;;;;;;;-148.88;100.00;-17125.47;5034270;28;20056;-74
2023/10/31 03:26:19;;;;;;;3.35;1.98;;;;;;;-148.88;100.00;-17125.47;5034089;28;20061;-74
2023/10/31 03:28:45;;;;;;;2.83;1.83;;;;;;;-148.88;100.00;-17125.47;5034102;28;20029;-74
2023/10/31 03:31:11;;;;;;;2.00;1.40;;;;;;;-148.88;100.00;-17125.47;5034057;28;20061;-74
2023/10/31 03:33:37;;;;;;;2.05;1.52;;;;;;;-148.88;100.00;-17125.47;5034493;28;20025;-75
2023/10/31 03:36:03;;;;;;;2.60;1.02;;;;;;;-148.88;100.00;-17125.47;5034542;28;20112;-74
2023/10/31 03:38:29;;;;;;;1.33;0.90;;;;;;;-148.88;100.00;-17125.47;5033936;28;20021;-74
2023/10/31 03:40:54;;;;;;;1.40;0.70;;;;;;;-148.88;100.00;-17125.47;5033864;28;20070;-75
2023/10/31 03:43:19;;;;;;;0.90;0.60;;;;;;;-148.88;100.00;-17125.47;5033875;28;20477;-74
2023/10/31 03:45:48;;;;;;;1.35;0.55;;;;;;;-148.88;100.00;-17125.47;5033839;28;20052;-74
2023/10/31 03:48:15;;;;;;;1.15;0.57;;;;;;;-148.88;100.00;-17125.47;5033715;28;20116;-74
2023/10/31 03:50:41;;;;;;;1.38;0.70;;;;;;;-148.88;100.00;-17125.47;5032547;28;20033;-74
2023/10/31 03:53:06;;;;;;;1.25;0.70;;;;;;;-148.88;100.00;-17125.47;5033091;28;20391;-75
2023/10/31 03:55:32;;;;;;;1.65;0.70;;;;;;;-148.88;100.00;-17125.47;5033738;28;20398;-74
2023/10/31 03:57:57;;;;;;;1.33;0.57;;;;;;;-148.88;100.00;-17125.47;5032348;28;20029;-75
2023/10/31 04:00:23;;;;;;;1.30;0.50;;;;;;;-148.88;100.00;-17125.47;5033600;28;20085;-74
2023/10/31 04:02:48;;;;;;;0.65;0.30;;;;;;;-148.88;100.00;-17125.47;5033545;28;20033;-74
2023/10/31 04:05:13;;;;;;;1.67;0.60;;;;;;;-148.88;100.00;-17125.47;5033842;28;20518;-74
2023/10/31 04:07:39;;;;;;;1.33;0.60;;;;;;;-148.88;100.00;-17125.47;5033277;28;20021;-74
2023/10/31 04:10:05;;;;;;;1.75;0.88;;;;;;;-148.88;100.00;-17125.47;5033257;28;20032;-74
2023/10/31 04:12:31;;;;;;;1.70;0.77;;;;;;;-148.88;100.00;-17125.47;5033242;28;20032;-74
2023/10/31 04:14:56;;;;;;;2.40;0.85;;;;;;;-148.88;100.00;-17125.47;5033349;28;20025;-74
2023/10/31 04:17:22;;;;;;;2.55;0.90;;;;;;;-148.88;100.00;-17125.47;5033444;28;20059;-74
2023/10/31 04:19:47;;;;;;;1.58;0.80;;;;;;;-148.88;100.00;-17125.47;5031775;28;20025;-74
2023/10/31 04:22:12;;;;;;;3.80;0.90;;;;;;;-148.88;100.00;-17125.47;5033114;28;20026;-74
2023/10/31 04:24:38;;;;;;;2.60;1.05;;;;;;;-148.88;100.00;-17125.47;5032934;28;20053;-74
2023/10/31 04:27:03;;;;;;;2.58;1.35;;;;;;;-148.88;100.00;-17125.47;5032942;28;20067;-75
2023/10/31 04:29:29;;;;;;;4.13;1.25;;;;;;;-148.88;100.00;-17125.47;5032781;28;20037;-74
2023/10/31 04:31:54;;;;;;;2.75;0.95;;;;;;;-148.88;100.00;-17125.47;5033043;28;20109;-75
2023/10/31 04:34:19;;;;;;;2.45;1.23;;;;;;;-148.88;100.00;-17125.47;5033431;28;20025;-74
2023/10/31 04:36:45;;;;;;;3.20;1.35;;;;;;;-148.88;100.00;-17125.47;5032882;28;20087;-74
2023/10/31 04:39:12;;;;;;;2.63;1.40;;;;;;;-148.88;100.00;-17125.47;5033032;28;20029;-74
2023/10/31 04:41:38;;;;;;;6.05;1.90;;;;;;;-148.88;100.00;-17125.47;5032870;28;20038;-75
2023/10/31 04:44:03;;;;;;;2.58;1.50;;;;;;;-148.88;100.00;-17125.47;5031279;28;20073;-75
2023/10/31 04:46:29;;;;;;;3.35;1.80;;;;;;;-148.88;100.00;-17125.47;5031295;28;20022;-75
2023/10/31 04:48:54;;;;;;;4.22;1.02;;;;;;;-148.88;100.00;-17125.47;5033079;28;20455;-75
2023/10/31 04:51:19;;;;;;;2.95;2.15;;;;;;;-148.88;100.00;-17125.47;5033114;28;20017;-75
2023/10/31 04:53:45;;;;;;;3.15;2.42;;;;;;;-148.88;100.00;-17125.47;5032809;28;20029;-74
2023/10/31 04:56:14;;;;;;;5.25;3.28;;;;;;;-148.88;100.00;-17125.47;5032865;28;20025;-74
2023/10/31 04:58:43;;;;;;;4.20;2.17;;;;;;;-148.88;100.00;-17125.47;5032555;28;20493;-75
2023/10/31 05:01:13;;;;;;;6.07;4.22;;;;;;;-148.88;100.00;-17125.47;5032420;28;20026;-74
2023/10/31 05:03:39;;;;;;;6.15;4.53;;;;;;;-148.88;100.00;-17125.47;5031545;28;20530;-74
2023/10/31 05:06:05;;;;;;;6.88;4.82;;;;;;;-148.88;100.00;-17125.47;5032845;28;20078;-74
2023/10/31 05:08:31;;;;;;;7.53;4.60;;;;;;;-148.88;100.00;-17125.47;5030972;28;20083;-75
2023/10/31 05:11:01;;;;;;;5.88;4.68;;;;;;;-148.88;100.00;-17125.47;5032347;28;20057;-75
2023/10/31 05:13:26;;;;;;;6.82;5.20;;;;;;;-148.88;100.00;-17125.47;5032292;28;20045;-75
2023/10/31 05:15:52;;;;;;;8.25;5.35;;;;;;;-148.88;100.00;-17125.47;5032523;28;20049;-74
2023/10/31 05:18:18;;;;;;;7.65;6.00;;;;;;;-148.88;100.00;-17125.47;5032343;28;20103;-75
2023/10/31 05:20:43;;;;;;;8.23;6.13;;;;;;;-148.88;100.00;-17125.47;5032140;28;20431;-74
2023/10/31 05:23:09;;;;;;;8.52;5.90;;;;;;;-148.88;100.00;-17125.47;5032207;28;20029;-75
2023/10/31 05:25:35;;;;;;;8.20;5.95;;;;;;;-148.88;100.00;-17125.47;5032105;28;20034;-75
2023/10/31 05:28:01;;;;;;;7.70;4.10;;;;;;;-148.88;100.00;-17125.47;5032070;28;20104;-75
2023/10/31 05:30:27;;;;;;;9.52;6.70;;;;;;;-148.88;100.00;-17125.47;5032236;28;20052;-75
2023/10/31 05:32:52;;;;;;;9.68;6.70;;;;;;;-148.88;100.00;-17125.47;5030817;28;20113;-75
2023/10/31 05:35:18;;;;;;;7.38;6.60;;;;;;;-148.88;100.00;-17125.47;5032573;28;20029;-75
2023/10/31 05:37:43;;;;;;;11.70;7.70;;;;;;;-148.88;100.00;-17125.47;5032047;28;20032;-74
2023/10/31 05:40:09;;;;;;;9.35;7.60;;;;;;;-148.88;100.00;-17125.47;5032515;28;20032;-75
2023/10/31 05:42:35;;;;;;;9.95;7.90;;;;;;;-148.88;100.00;-17125.47;5032101;28;20109;-75
2023/10/31 05:45:00;;;;;;;8.80;7.15;;;;;;;-148.88;100.00;-17125.47;5030555;28;20029;-74
2023/10/31 05:47:26;;;;;;;7.20;4.15;;;;;;;-148.88;100.00;-17125.47;5031924;28;20026;-74
2023/10/31 05:49:51;;;;;;;9.82;4.97;;;;;;;-148.88;100.00;-17125.47;5030478;28;20547;-74
2023/10/31 05:52:17;;;;;;;8.35;4.00;;;;;;;-148.88;100.00;-17125.47;5032000;28;20026;-74
2023/10/31 05:54:42;;;;;;;11.88;9.30;;;;;;;-148.88;100.00;-17125.47;5031918;28;20056;-74
2023/10/31 05:57:08;;;;;;;12.90;9.32;;;;;;;-148.88;100.00;-17125.47;5030417;28;20414;-75
2023/10/31 05:59:33;;;;;;;12.68;9.18;;;;;;;-148.88;100.00;-17125.47;5030981;28;20026;-75
2023/10/31 06:01:58;;;;;;;12.32;9.10;;;;;;;-148.88;100.00;-17125.47;5030515;28;20025;-76
2023/10/31 06:04:24;;;;;;;15.10;10.10;;;;;;;-148.88;100.00;-17125.47;5031897;28;20024;-76
2023/10/31 06:06:50;;;;;;;12.38;9.68;;;;;;;-148.88;100.00;-17125.47;5031756;28;20159;-75
2023/10/31 06:09:16;;;;;;;13.23;10.57;;;;;;;-148.88;100.00;-17125.47;5031752;28;20029;-76
2023/10/31 06:11:42;;;;;;;12.10;5.20;;;;;;;-148.88;100.00;-17125.47;5031825;28;20056;-75
2023/10/31 06:14:08;;;;;;;14.77;11.20;;;;;;;-148.88;100.00;-17125.47;5031885;28;20170;-75
2023/10/31 06:16:43;;;;;;;14.50;10.77;;;;;;;-148.88;100.00;-17125.47;5033848;28;20033;-74
2023/10/31 06:19:08;;;;;;;12.65;10.05;;;;;;;-148.88;100.00;-17125.47;5035247;28;20029;-73
2023/10/31 06:21:34;;;;;;;15.45;11.50;;;;;;;-148.88;100.00;-17125.47;5035392;28;20030;-74
2023/10/31 06:23:59;;;;;;;13.68;5.95;;;;;;;-148.88;100.00;-17125.47;5033978;28;20021;-73
2023/10/31 06:26:25;;;;;;;15.63;11.32;;;;;;;-148.88;100.00;-17125.47;5039290;22;20044;-73
2023/10/31 06:28:50;;;;;;;16.45;11.35;;;;;;;-148.88;100.00;-17125.47;5015405;28;20109;-73
2023/10/31 06:31:15;;;;;;;15.73;12.55;;;;;;;-148.88;100.00;-17125.47;4997965;28;20473;-71
2023/10/31 06:33:41;;;;;;;16.17;13.15;;;;;;;-148.88;100.00;-17125.47;5015354;28;20056;-71
2023/10/31 06:36:07;;;;;;;22.05;13.82;;;;;;;-148.88;100.00;-17125.47;5015517;28;20473;-71
2023/10/31 06:38:33;;;;;;;17.77;12.77;;;;;;;-148.88;100.00;-17125.47;5015427;28;20051;-72
2023/10/31 06:40:58;;;;;;;15.80;12.48;;;;;;;-148.88;100.00;-17125.47;5013488;28;20030;-71
2023/10/31 06:43:24;;;;;;;15.02;11.63;;;;;;;-148.88;100.00;-17125.47;5014375;28;20483;-72
2023/10/31 06:45:49;;;;;;;17.45;11.63;;;;;;;-148.88;100.00;-17125.47;5015043;28;20025;-72
2023/10/31 06:48:15;;;;;;;14.73;11.43;;;;;;;-148.88;100.00;-17125.47;5014810;28;20113;-72
2023/10/31 06:50:40;;;;;;;14.60;10.20;;;;;;;-148.88;100.00;-17125.47;4997148;28;20021;-72
2023/10/31 06:53:05;;;;;;;11.10;8.10;;;;;;;-148.88;100.00;-17125.47;5014865;28;20105;-71
2023/10/31 06:55:31;;;;;;;10.75;6.70;;;;;;;-148.88;100.00;-17125.47;5014846;28;20041;-72
2023/10/31 06:57:56;;;;;;;7.75;5.85;;;;;;;-148.88;100.00;-17125.47;4997522;28;20030;-72
2023/10/31 07:00:22;;;;;;;7.80;5.75;;;;;;;-148.88;100.00;-17125.47;5014575;28;20389;-72
2023/10/31 07:02:47;;;;;;;9.82;5.50;;;;;;;-148.88;100.00;-17125.47;5014400;28;20026;-72
2023/10/31 07:05:13;;;;;;;7.00;5.18;;;;;;;-148.88;100.00;-17125.47;4997476;28;20036;-72
2023/10/31 07:07:39;;;;;;;5.30;2.40;;;;;;;-148.88;100.00;-17125.47;5014528;28;20030;-72
2023/10/31 07:10:05;;;;;;;5.18;4.22;;;;;;;-148.88;100.00;-17125.47;5014410;28;20037;-72
2023/10/31 07:12:30;;;;;;;4.80;1.98;;;;;;;-148.88;100.00;-17125.47;5014281;28;20022;-71
2023/10/31 07:14:58;;;;;;;6.00;3.70;;;;;;;-148.88;100.00;-17125.47;5014335;28;20053;-71
2023/10/31 07:17:24;;;;;;;3.60;2.00;;;;;;;-148.88;100.00;-17125.47;4996931;28;20049;-73
2023/10/31 07:19:49;;;;;;;4.35;3.42;;;;;;;-148.88;100.00;-17125.47;5014347;28;20073;-72
2023/10/31 07:22:15;;;;;;;3.58;1.33;;;;;;;-148.88;100.00;-17125.47;5014597;28;20026;-72
2023/10/31 07:24:40;;;;;;;3.33;2.70;;;;;;;-148.88;100.00;-17125.47;5014192;28;20041;-72
2023/10/31 07:27:06;;;;;;;5.00;2.20;;;;;;;-148.88;100.00;-17125.47;5013450;28;20038;-72
2023/10/31 07:29:31;;;;;;;2.80;0.98;;;;;;;-148.88;100.00;-17125.47;5013712;28;20017;-72
2023/10/31 07:31:56;;;;;;;2.53;1.85;;;;;;;-148.88;100.00;-17125.47;4997071;28;20519;-73
2023/10/31 07:34:24;;;;;;;3.60;1.10;;;;;;;-148.88;100.00;-17125.47;5014302;28;20493;-72
2023/10/31 07:36:50;;;;;;;2.97;1.70;;;;;;;-148.88;100.00;-17125.47;5013475;28;20052;-73
2023/10/31 07:39:15;;;;;;;2.50;1.60;;;;;;;-148.88;100.00;-17125.47;5013857;28;20486;-73
2023/10/31 07:41:40;;;;;;;2.75;1.83;;;;;;;-148.88;100.00;-17125.47;5014009;28;20045;-73
2023/10/31 07:44:06;;;;;;;3.35;0.98;;;;;;;-148.88;100.00;-17125.47;5014224;28;20026;-74
2023/10/31 07:46:32;;;;;;;2.47;1.98;;;;;;;-148.88;100.00;-17125.47;5013415;28;20136;-73
2023/10/31 07:48:58;;;;;;;3.17;2.00;;;;;;;-148.88;100.00;-17125.47;5013243;28;20022;-70
2023/10/31 07:51:23;;;;;;;2.95;2.08;;;;;;;-148.88;100.00;-17125.47;4992570;28;20034;-73
2023/10/31 07:53:48;;;;;;;3.03;1.80;;;;;;;-148.88;100.00;-17125.47;4994002;28;20026;-72
2023/10/31 07:56:22;;;;;;;2.70;1.75;;;;;;;-148.88;100.00;-17125.47;5005841;28;20026;-72
2023/10/31 07:58:48;;;;;;;2.85;1.92;;;;;;;-148.88;100.00;-17125.47;5013376;28;20022;-72
2023/10/31 08:01:13;;;;;;;3.50;1.83;;;;;;;-148.88;100.00;-17125.47;5013259;28;20052;-72
2023/10/31 08:03:38;;;;;;;3.72;2.47;;;;;;;-148.88;100.00;-17125.47;5013598;28;20025;-72
2023/10/31 08:06:06;;;;;;;3.38;2.50;;;;;;;-148.88;100.00;-17125.47;4995981;28;20122;-73
2023/10/31 08:08:31;;;;;;;2.97;1.60;;;;;;;-148.88;100.00;-17125.47;5036252;22;20037;-86
2023/10/31 08:10:58;;;;;;;3.13;2.28;;;;;;;-148.88;100.00;-17125.47;5053172;28;20025;-84
2023/10/31 08:13:24;;;;;;;3.28;2.47;;;;;;;-148.88;100.00;-17125.47;5053074;28;20155;-85
2023/10/31 08:15:49;;;;;;;3.65;2.20;;;;;;;-148.88;100.00;-17125.47;5053533;28;20104;-87
2023/10/31 08:18:15;;;;;;;3.15;1.30;;;;;;;-148.88;100.00;-17125.47;5053111;28;20082;-86
2023/10/31 08:20:40;;;;;;;3.47;2.20;;;;;;;-148.88;100.00;-17125.47;5053648;28;20140;-86
2023/10/31 08:23:05;;;;;;;4.35;2.30;;;;;;;-148.88;100.00;-17125.47;5053223;28;20075;-84
2023/10/31 08:25:31;;;;;;;2.65;1.95;;;;;;;-148.88;100.00;-17125.47;5052891;28;20025;-85
2023/10/31 08:27:56;;;;;;;3.15;1.42;;;;;;;-148.88;100.00;-17125.47;5053221;28;20497;-87
2023/10/31 08:30:22;;;;;;;2.50;1.27;;;;;;;-148.88;100.00;-17125.47;5053609;28;20029;-86
2023/10/31 08:32:47;;;;;;;2.92;1.83;;;;;;;-148.88;100.00;-17125.47;5053010;28;20021;-84
2023/10/31 08:35:12;;;;;;;3.35;2.45;;;;;;;-148.88;100.00;-17125.47;5053000;28;20095;-82
2023/10/31 08:37:38;;;;;;;2.67;2.08;;;;;;;-148.88;100.00;-17125.47;5052924;28;20021;-83
2023/10/31 08:40:04;;;;;;;2.63;2.10;;;;;;;-148.88;100.00;-17125.47;5054526;28;20055;-86
2023/10/31 08:42:30;;;;;;;3.20;2.40;;;;;;;-148.88;100.00;-17125.47;5053505;28;20109;-85
2023/10/31 08:44:55;;;;;;;3.60;2.13;;;;;;;-148.88;100.00;-17125.47;5053539;28;20493;-85
2023/10/31 08:47:21;;;;;;;4.30;2.10;;;;;;;-148.88;100.00;-17125.47;5052771;28;20522;-88
2023/10/31 08:49:46;;;;;;;2.67;1.90;;;;;;;-148.88;100.00;-17125.47;5052682;28;20131;-87
2023/10/31 08:52:12;;;;;;;2.90;2.00;;;;;;;-148.88;100.00;-17125.47;5053328;28;20047;-86
2023/10/31 08:54:37;;;;;;;2.25;1.08;;;;;;;-148.88;100.00;-17125.47;5053379;28;20017;-86
2023/10/31 08:57:02;;;;;;;2.28;1.52;;;;;;;-148.88;100.00;-17125.47;5053814;28;20021;-86
2023/10/31 08:59:28;;;;;;;2.90;2.00;;;;;;;-148.88;100.00;-17125.47;5052466;28;20116;-86
2023/10/31 09:01:53;;;;;;;2.15;1.70;;;;;;;-148.88;100.00;-17125.47;5052934;28;20029;-89
2023/10/31 09:04:19;;;;;;;2.90;1.88;;;;;;;-148.88;100.00;-17125.47;5052990;28;20114;-90
2023/10/31 09:06:44;;;;;;;3.20;1.95;;;;;;;-148.88;100.00;-17125.47;5052784;28;20021;-91
2023/10/31 09:09:10;;;;;;;2.92;1.90;;;;;;;-148.88;100.00;-17125.47;5052630;28;20045;-89
2023/10/31 09:11:35;;;;;;;2.83;2.22;;;;;;;-148.88;100.00;-17125.47;5052664;28;20021;-86
2023/10/31 09:14:01;;;;;;;2.88;1.48;;;;;;;-148.88;100.00;-17125.47;5052663;28;20029;-86
2023/10/31 09:16:26;;;;;;;3.63;2.47;;;;;;;-148.88;100.00;-17125.47;5052350;28;20020;-87
2023/10/31 09:18:52;;;;;;;3.55;2.42;;;;;;;-148.88;100.00;-17125.47;5052323;28;20021;-86
2023/10/31 09:21:18;;;;;;;3.28;2.40;;;;;;;-148.88;100.00;-17125.47;5052563;28;20060;-87
2023/10/31 09:23:43;;;;;;;3.65;2.50;;;;;;;-148.88;100.00;-17125.47;5053458;28;20063;-85
2023/10/31 09:26:08;;;;;;;4.05;2.83;;;;;;;-148.88;100.00;-17125.47;5052873;28;20158;-89
2023/10/31 09:28:36;;;;;;;3.80;2.72;;;;;;;-148.88;100.00;-17125.47;5053343;28;20021;-86
2023/10/31 09:31:02;;;;;;;4.53;3.20;;;;;;;-148.88;100.00;-17125.47;5052400;28;20029;-87
2023/10/31 09:33:27;;;;;;;4.38;3.10;;;;;;;-148.88;100.00;-17125.47;5051995;28;20021;-87
2023/10/31 09:35:52;;;;;;;5.53;3.08;;;;;;;-148.88;100.00;-17125.47;5052111;28;20079;-86
2023/10/31 09:38:18;;;;;;;4.20;3.22;;;;;;;-148.88;100.00;-17125.47;5051948;28;20051;-88
2023/10/31 09:40:43;;;;;;;5.03;2.05;;;;;;;-148.88;100.00;-17125.47;5052084;28;20025;-86
2023/10/31 09:43:09;;;;;;;3.20;1.70;;;;;;;-148.88;100.00;-17125.47;5052169;28;20032;-88
2023/10/31 09:45:34;;;;;;;6.30;3.80;;;;;;;-148.88;100.00;-17125.47;5053352;28;20032;-88
2023/10/31 09:48:01;;;;;;;4.43;3.67;;;;;;;-148.88;100.00;-17125.47;5052131;28;20448;-89
2023/10/31 09:50:26;;;;;;;5.03;3.70;;;;;;;-148.88;100.00;-17125.47;5053953;28;20533;-86
2023/10/31 09:52:52;;;;;;;4.45;3.60;;;;;;;-148.88;100.00;-17125.47;5056636;28;20029;-91
2023/10/31 09:55:22;;;;;;;4.47;3.30;;;;;;;-148.88;100.00;-17125.47;5056113;28;20073;-87
2023/10/31 09:57:48;;;;;;;6.82;3.70;;;;;;;-148.88;100.00;-17125.47;5058092;28;20029;-88
2023/10/31 10:00:14;;;;;;;5.70;3.50;;;;;;;-148.88;100.00;-17125.47;5055974;28;20070;-90
2023/10/31 10:02:40;;;;;;;6.00;3.85;;;;;;;-148.88;100.00;-17125.47;5055438;28;20066;-89
2023/10/31 10:05:08;;;;;;;7.10;4.53;;;;;;;-148.88;100.00;-17125.47;5056513;28;20025;-88
2023/10/31 10:07:35;;;;;;;7.72;4.40;;;;;;;-148.88;100.00;-17125.47;5055605;28;20048;-89
2023/10/31 10:10:01;;;;;;;5.60;4.68;;;;;;;-148.88;100.00;-17125.47;5055743;28;20128;-89
2023/10/31 10:12:29;;;;;;;6.50;4.60;;;;;;;-148.88;100.00;-17125.47;5055553;28;20394;-90
2023/10/31 10:14:56;;;;;;;7.35;4.90;;;;;;;-148.88;100.00;-17125.47;5055193;28;20029;-87
2023/10/31 10:17:25;;;;;;;6.65;5.28;;;;;;;-148.88;100.00;-17125.47;5055090;28;20405;-87
2023/10/31 10:20:08;;;;;;;9.35;5.78;;;;;;;-148.88;100.00;-17125.47;5055093;28;20028;-87
2023/10/31 10:22:44;;;;;;;6.75;5.57;;;;;;;-148.88;100.00;-17125.47;5056496;28;20024;-91
2023/10/31 10:25:15;;;;;;;6.75;3.22;;;;;;;-148.88;100.00;-17125.47;5055295;28;20021;-90
2023/10/31 10:31:02;;;;;;;8.38;5.70;;;;;;;-148.88;100.00;-17125.47;5056923;28;20128;-91
2023/10/31 10:33:34;;;;;;;7.28;5.72;;;;;;;-148.88;100.00;-17125.47;5056715;28;20060;-93
2023/10/31 10:35:59;;;;;;;8.07;6.15;;;;;;;-148.88;100.00;-17125.47;5055268;28;20029;-89
2023/10/31 10:38:26;;;;;;;8.15;6.60;;;;;;;-148.88;100.00;-17125.47;5056003;28;20031;-86
2023/10/31 10:40:55;;;;;;;9.43;6.55;;;;;;;-148.88;100.00;-17125.47;5055747;28;20418;-89
2023/10/31 10:43:25;;;;;;;8.25;5.75;;;;;;;-148.88;100.00;-17125.47;5061272;28;20024;-88
2023/10/31 10:45:59;;;;;;;9.15;5.63;;;;;;;-148.88;100.00;-17125.47;5056378;28;20094;-86
2023/10/31 10:48:26;;;;;;;8.18;5.53;;;;;;;-148.88;100.00;-17125.47;5055619;28;20013;-85
2023/10/31 10:51:11;;;;;;;7.20;5.53;;;;;;;-148.88;100.00;-17125.47;5054894;28;20033;-87
2023/10/31 10:53:49;;;;;;;7.72;5.90;;;;;;;-148.88;100.00;-17125.47;5057293;28;20060;-88
2023/10/31 10:56:21;;;;;;;8.13;6.43;;;;;;;-148.88;100.00;-17125.47;5055213;28;20029;-87
2023/10/31 10:59:04;;;;;;;10.70;6.68;;;;;;;-148.88;100.00;-17125.47;5055642;28;20078;-87